createdAt,value
2023-02-15T00:01:34.883Z,31.87
2023-02-15T00:04:01.168Z,31.37
2023-02-15T00:06:27.596Z,31.70
2023-02-15T00:08:54.784Z,32.17
2023-02-15T00:11:40.464Z,31.00
2023-02-15T00:14:11.359Z,31.57
2023-02-15T00:16:38.288Z,31.13
2023-02-15T00:19:04.745Z,32.13
2023-02-15T00:21:31.608Z,30.63
2023-02-15T00:23:58.928Z,30.87
2023-02-15T00:26:25.621Z,30.23
2023-02-15T00:28:52.116Z,31.03
2023-02-15T00:31:18.524Z,30.97
2023-02-15T00:33:44.960Z,30.90
2023-02-15T00:36:11.641Z,30.50
2023-02-15T00:38:39.345Z,31.70
2023-02-15T00:41:06.499Z,30.43
2023-02-15T00:43:33.613Z,30.97
2023-02-15T00:46:00.330Z,30.60
2023-02-15T00:48:26.943Z,29.10
2023-02-15T00:50:54.411Z,28.37
2023-02-15T00:53:21.473Z,29.60
2023-02-15T00:55:47.919Z,27.10
2023-02-15T00:58:14.652Z,29.67
2023-02-15T01:00:41.938Z,29.60
2023-02-15T01:03:09.542Z,26.57
2023-02-15T01:05:35.886Z,26.57
2023-02-15T01:08:02.373Z,27.20
2023-02-15T01:10:29.364Z,27.20
2023-02-15T01:12:56.062Z,27.37
2023-02-15T01:15:22.619Z,26.63
2023-02-15T01:17:53.619Z,26.67
2023-02-15T01:20:20.431Z,26.50
2023-02-15T01:22:46.798Z,26.57
2023-02-15T01:25:13.590Z,25.83
2023-02-15T01:27:40.945Z,25.27
2023-02-15T01:30:07.871Z,23.50
2023-02-15T01:32:34.180Z,24.80
2023-02-15T01:35:00.501Z,25.27
2023-02-15T01:37:26.772Z,24.03
2023-02-15T01:39:54.552Z,21.77
2023-02-15T01:42:25.171Z,22.53
2023-02-15T01:44:59.392Z,21.77
2023-02-15T01:50:02.534Z,21.40
2023-02-15T01:52:29.356Z,21.83
2023-02-15T01:54:55.871Z,21.93
2023-02-15T01:57:25.434Z,20.20
2023-02-15T01:59:54.793Z,21.03
2023-02-15T02:02:28.226Z,20.30
2023-02-15T02:04:57.674Z,19.73
2023-02-15T02:07:27.331Z,20.60
2023-02-15T02:09:53.670Z,20.70
2023-02-15T02:12:22.222Z,21.07
2023-02-15T02:14:48.983Z,20.17
2023-02-15T02:17:34.120Z,21.30
2023-02-15T02:20:03.580Z,19.30
2023-02-15T02:22:29.856Z,20.80
2023-02-15T02:24:56.217Z,19.90
2023-02-15T02:27:28.639Z,18.13
2023-02-15T02:30:04.254Z,19.30
2023-02-15T02:35:40.588Z,20.03
2023-02-15T02:38:11.128Z,19.97
2023-02-15T02:40:50.081Z,19.30
2023-02-15T02:43:22.402Z,18.37
2023-02-15T02:45:53.858Z,20.00
2023-02-15T02:48:22.573Z,19.27
2023-02-15T02:50:48.932Z,19.20
2023-02-15T02:53:15.248Z,18.13
2023-02-15T02:55:52.642Z,18.30
2023-02-15T02:58:38.369Z,19.53
2023-02-15T03:01:07.247Z,17.73
2023-02-15T03:03:38.830Z,17.10
2023-02-15T03:06:07.094Z,19.37
2023-02-15T03:08:36.937Z,18.03
2023-02-15T03:11:04.142Z,17.87
2023-02-15T03:13:30.853Z,18.73
2023-02-15T03:16:16.704Z,19.23
2023-02-15T03:18:45.108Z,18.10
2023-02-15T03:21:23.099Z,18.17
2023-02-15T03:24:01.832Z,18.23
2023-02-15T03:26:29.533Z,19.27
2023-02-15T03:28:57.786Z,16.13
2023-02-15T03:31:25.918Z,17.30
2023-02-15T03:33:58.140Z,16.20
2023-02-15T03:36:37.698Z,16.07
2023-02-15T03:39:22.596Z,15.60
2023-02-15T03:41:52.917Z,14.30
2023-02-15T03:44:32.635Z,15.77
2023-02-15T03:46:59.008Z,15.43
2023-02-15T03:49:27.603Z,16.13
2023-02-15T03:51:55.542Z,15.63
2023-02-15T03:54:45.715Z,16.50
2023-02-15T03:57:44.346Z,14.73
2023-02-15T04:00:35.810Z,15.37
2023-02-15T04:03:04.859Z,15.73
2023-02-15T04:05:31.200Z,15.77
2023-02-15T04:07:57.507Z,15.47
2023-02-15T04:10:42.799Z,15.80
2023-02-15T04:13:09.112Z,14.77
2023-02-15T04:15:55.012Z,15.97
2023-02-15T04:18:21.317Z,14.83
2023-02-15T04:21:06.857Z,15.90
2023-02-15T04:23:51.538Z,15.50
2023-02-15T04:26:17.940Z,15.83
2023-02-15T04:28:44.378Z,16.87
2023-02-15T04:31:12.924Z,16.67
2023-02-15T04:33:39.328Z,16.00
2023-02-15T04:36:05.989Z,17.10
2023-02-15T04:38:32.283Z,16.47
2023-02-15T04:40:58.656Z,18.07
2023-02-15T04:43:25.054Z,17.87
2023-02-15T04:45:51.623Z,19.40
2023-02-15T04:48:18.741Z,17.23
2023-02-15T04:50:45.570Z,18.70
2023-02-15T04:53:12.227Z,18.93
2023-02-15T04:55:38.550Z,19.17
2023-02-15T04:58:04.948Z,20.63
2023-02-15T05:00:31.235Z,21.40
2023-02-15T05:02:57.622Z,19.80
2023-02-15T05:05:23.959Z,20.73
2023-02-15T05:07:50.326Z,20.90
2023-02-15T05:10:16.755Z,21.10
2023-02-15T05:12:43.063Z,22.53
2023-02-15T05:15:09.588Z,21.43
2023-02-15T05:17:36.015Z,20.23
2023-02-15T05:20:02.375Z,21.03
2023-02-15T05:22:28.748Z,21.20
2023-02-15T05:25:13.923Z,22.00
2023-02-15T05:27:58.736Z,20.50
2023-02-15T05:30:25.221Z,21.80
2023-02-15T05:32:51.628Z,21.13
2023-02-15T05:35:18.250Z,22.80
2023-02-15T05:37:44.670Z,21.27
2023-02-15T05:40:11.231Z,21.90
2023-02-15T05:42:37.581Z,21.13
2023-02-15T05:45:04.786Z,21.57
2023-02-15T05:47:31.154Z,21.40
2023-02-15T05:49:57.461Z,22.23
2023-02-15T05:52:23.843Z,21.20
2023-02-15T05:54:50.177Z,22.17
2023-02-15T05:57:16.454Z,23.20
2023-02-15T05:59:43.029Z,23.73
2023-02-15T06:02:09.508Z,22.17
2023-02-15T06:04:35.876Z,23.13
2023-02-15T06:07:02.155Z,23.37
2023-02-15T06:09:28.531Z,23.63
2023-02-15T06:11:54.898Z,24.67
2023-02-15T06:14:21.378Z,24.87
2023-02-15T06:16:47.710Z,24.30
2023-02-15T06:19:14.118Z,22.23
2023-02-15T06:21:40.409Z,23.37
2023-02-15T06:24:06.728Z,23.97
2023-02-15T06:26:33.678Z,24.30
2023-02-15T06:28:59.967Z,23.83
2023-02-15T06:31:26.378Z,24.50
2023-02-15T06:33:52.778Z,23.47
2023-02-15T06:36:19.045Z,22.70
2023-02-15T06:38:45.454Z,22.17
2023-02-15T06:41:11.765Z,22.87
2023-02-15T06:43:40.026Z,23.57
2023-02-15T06:46:07.222Z,24.70
2023-02-15T06:48:33.531Z,23.47
2023-02-15T06:50:59.817Z,24.00
2023-02-15T06:53:26.121Z,22.67
2023-02-15T06:55:52.404Z,24.77
2023-02-15T06:58:18.806Z,22.90
2023-02-15T07:00:45.133Z,21.43
2023-02-15T07:03:13.963Z,22.63
2023-02-15T07:05:40.757Z,25.13
2023-02-15T07:08:07.146Z,23.07
2023-02-15T07:10:33.486Z,21.23
2023-02-15T07:12:59.783Z,21.03
2023-02-15T07:15:26.159Z,21.10
2023-02-15T07:17:52.442Z,22.07
2023-02-15T07:20:20.263Z,21.63
2023-02-15T07:22:46.886Z,22.10
2023-02-15T07:25:13.602Z,22.73
2023-02-15T07:27:41.201Z,22.73
2023-02-15T07:30:08.660Z,22.00
2023-02-15T07:32:35.086Z,21.53
2023-02-15T07:35:01.527Z,21.47
2023-02-15T07:37:28.432Z,21.40
2023-02-15T07:39:54.752Z,21.97
2023-02-15T07:42:22.089Z,22.90
2023-02-15T07:44:48.503Z,22.13
2023-02-15T07:47:14.941Z,20.97
2023-02-15T07:49:41.248Z,22.80
2023-02-15T07:52:07.633Z,23.30
2023-02-15T07:54:33.950Z,23.13
2023-02-15T07:57:01.353Z,20.80
2023-02-15T07:59:28.277Z,23.57
2023-02-15T08:01:57.262Z,22.57
2023-02-15T08:04:24.234Z,24.37
2023-02-15T08:06:52.682Z,22.43
2023-02-15T08:09:18.983Z,21.83
2023-02-15T08:11:45.429Z,23.97
2023-02-15T08:14:11.705Z,22.27
2023-02-15T08:16:48.224Z,20.97
2023-02-15T08:19:14.609Z,22.63
2023-02-15T08:21:45.273Z,23.17
2023-02-15T08:24:12.344Z,24.53
2023-02-15T08:26:41.812Z,22.23
2023-02-15T08:29:09.208Z,23.57
2023-02-15T08:31:36.539Z,23.00
2023-02-15T08:34:03.104Z,23.53
2023-02-15T08:36:30.541Z,24.33
2023-02-15T08:39:01.936Z,25.43
2023-02-15T08:41:30.377Z,25.17
2023-02-15T08:43:58.164Z,25.47
2023-02-15T08:46:25.642Z,24.27
2023-02-15T08:48:51.950Z,25.40
2023-02-15T08:51:22.583Z,25.90
2023-02-15T08:53:50.096Z,24.73
2023-02-15T08:56:17.405Z,24.87
2023-02-15T08:58:43.717Z,27.13
2023-02-15T09:01:11.139Z,26.47
2023-02-15T09:03:37.753Z,26.50
2023-02-15T09:06:04.098Z,27.57
2023-02-15T09:08:30.753Z,28.03
2023-02-15T09:11:05.440Z,26.87
2023-02-15T09:13:31.837Z,29.03
2023-02-15T09:16:05.419Z,29.53
2023-02-15T09:18:32.766Z,30.43
2023-02-15T09:21:06.779Z,31.70
2023-02-15T09:23:33.148Z,29.40
2023-02-15T09:26:02.510Z,30.03
2023-02-15T09:28:28.803Z,30.90
2023-02-15T09:30:56.624Z,33.33
2023-02-15T09:33:23.054Z,35.03
2023-02-15T09:35:49.350Z,35.23
2023-02-15T09:38:15.835Z,34.20
2023-02-15T09:40:47.661Z,33.40
2023-02-15T09:43:37.380Z,37.17
2023-02-15T09:46:03.983Z,40.43
2023-02-15T09:48:30.652Z,38.80
2023-02-15T09:51:15.456Z,39.17
2023-02-15T09:53:58.407Z,40.63
2023-02-15T09:56:30.562Z,45.70
2023-02-15T09:59:02.918Z,41.77
2023-02-15T10:01:37.262Z,44.17
2023-02-15T10:04:09.611Z,40.33
2023-02-15T10:06:42.998Z,41.13
2023-02-15T10:09:35.681Z,43.13
2023-02-15T10:12:08.359Z,43.80
2023-02-15T10:14:38.971Z,43.83
2023-02-15T10:17:20.004Z,41.17
2023-02-15T10:20:11.477Z,40.83
2023-02-15T10:22:43.063Z,48.50
2023-02-15T10:25:18.515Z,46.53
2023-02-15T10:27:49.415Z,42.33
2023-02-15T10:30:16.896Z,42.33
2023-02-15T10:33:03.579Z,47.30
2023-02-15T10:35:42.190Z,44.37
2023-02-15T10:38:14.236Z,44.97
2023-02-15T10:40:43.548Z,40.87
2023-02-15T10:43:34.679Z,43.13
2023-02-15T10:46:04.221Z,38.30
2023-02-15T10:48:49.118Z,42.73
2023-02-15T10:51:47.940Z,36.27
2023-02-15T10:54:28.333Z,37.50
2023-02-15T10:57:00.571Z,35.83
2023-02-15T10:59:47.892Z,34.27
2023-02-15T11:02:24.417Z,33.60
2023-02-15T11:04:50.835Z,32.60
2023-02-15T11:07:20.403Z,35.03
2023-02-15T11:10:05.493Z,33.57
2023-02-15T11:12:32.472Z,31.67
2023-02-15T11:15:17.706Z,30.83
2023-02-15T11:17:48.463Z,30.93
2023-02-15T11:20:17.631Z,31.70
2023-02-15T11:22:47.596Z,31.40
2023-02-15T11:25:18.875Z,30.07
2023-02-15T11:27:47.746Z,30.13
2023-02-15T11:30:15.404Z,31.30
2023-02-15T11:32:44.376Z,30.77
2023-02-15T11:35:10.673Z,29.33
2023-02-15T11:37:40.720Z,31.00
2023-02-15T11:40:23.386Z,32.53
2023-02-15T11:42:50.967Z,32.07
2023-02-15T11:45:24.757Z,29.07
2023-02-15T11:47:51.099Z,28.53
2023-02-15T11:50:22.903Z,27.43
2023-02-15T11:52:50.541Z,30.00
2023-02-15T11:55:20.032Z,28.90
2023-02-15T11:57:51.267Z,28.87
2023-02-15T12:00:23.398Z,27.87
2023-02-15T12:02:52.947Z,27.67
2023-02-15T12:05:23.967Z,29.43
2023-02-15T12:07:53.228Z,27.73
2023-02-15T12:10:19.657Z,28.67
2023-02-15T12:12:46.045Z,29.43
2023-02-15T12:15:13.092Z,29.87
2023-02-15T12:17:40.531Z,28.63
2023-02-15T12:20:15.774Z,27.73
2023-02-15T12:22:55.625Z,28.43
2023-02-15T12:25:24.346Z,31.90
2023-02-15T12:27:50.845Z,27.23
2023-02-15T12:30:19.918Z,27.60
2023-02-15T12:32:52.221Z,28.73
2023-02-15T12:35:27.592Z,28.47
2023-02-15T12:38:12.336Z,27.67
2023-02-15T12:40:41.054Z,28.03
2023-02-15T12:43:25.881Z,28.40
2023-02-15T12:45:52.227Z,28.47
2023-02-15T12:48:20.096Z,27.80
2023-02-15T12:50:57.495Z,28.37
2023-02-15T12:53:33.205Z,28.57
2023-02-15T12:56:00.901Z,28.60
2023-02-15T12:58:28.217Z,29.23
2023-02-15T13:01:09.552Z,28.43
2023-02-15T13:03:54.566Z,28.80
2023-02-15T13:06:21.618Z,28.73
2023-02-15T13:08:51.851Z,28.33
2023-02-15T13:11:31.364Z,28.30
2023-02-15T13:13:59.584Z,27.90
2023-02-15T13:16:31.961Z,27.97
2023-02-15T13:18:59.069Z,26.47
2023-02-15T13:21:31.908Z,27.20
2023-02-15T13:24:01.030Z,26.20
2023-02-15T13:26:30.536Z,27.13
2023-02-15T13:28:58.220Z,27.23
2023-02-15T13:31:28.710Z,26.43
2023-02-15T13:34:01.415Z,24.97
2023-02-15T13:36:31.171Z,27.77
2023-02-15T13:39:03.385Z,26.50
2023-02-15T13:41:34.532Z,27.43
2023-02-15T13:44:14.288Z,26.93
2023-02-15T13:46:42.594Z,26.17
2023-02-15T13:49:22.674Z,26.07
2023-02-15T13:51:55.190Z,25.70
2023-02-15T13:54:36.936Z,25.70
2023-02-15T13:57:21.772Z,24.50
2023-02-15T14:00:26.677Z,24.93
2023-02-15T14:03:11.553Z,25.20
2023-02-15T14:05:37.865Z,26.27
2023-02-15T14:08:11.015Z,26.50
2023-02-15T14:10:56.765Z,24.73
2023-02-15T14:13:23.041Z,24.27
2023-02-15T14:16:29.976Z,26.07
2023-02-15T14:19:00.559Z,23.37
2023-02-15T14:21:35.569Z,24.00
2023-02-15T14:24:18.937Z,24.37
2023-02-15T14:26:57.029Z,26.03
2023-02-15T14:29:26.284Z,23.50
2023-02-15T14:31:55.980Z,25.03
2023-02-15T14:34:36.997Z,23.73
2023-02-15T14:37:06.505Z,24.67
2023-02-15T14:39:56.520Z,24.60
2023-02-15T14:42:37.310Z,23.77
2023-02-15T14:45:03.644Z,23.80
2023-02-15T14:47:36.351Z,25.07
2023-02-15T14:50:24.050Z,25.63
2023-02-15T14:53:16.822Z,26.57
2023-02-15T14:55:43.232Z,24.00
2023-02-15T14:58:12.482Z,25.33
2023-02-15T15:00:39.868Z,25.90
2023-02-15T15:03:18.501Z,25.33
2023-02-15T15:05:50.494Z,25.37
2023-02-15T15:08:43.002Z,25.63
2023-02-15T15:11:43.832Z,24.13
2023-02-15T15:14:11.418Z,24.93
2023-02-15T15:16:40.808Z,23.63
2023-02-15T15:19:11.293Z,25.07
2023-02-15T15:21:49.831Z,25.43
2023-02-15T15:24:34.917Z,24.17
2023-02-15T15:27:20.192Z,23.17
2023-02-15T15:29:46.705Z,23.83
2023-02-15T15:32:27.918Z,25.80
2023-02-15T15:35:07.659Z,25.47
2023-02-15T15:37:52.725Z,23.43
2023-02-15T15:40:25.184Z,22.13
2023-02-15T15:43:10.291Z,23.70
2023-02-15T15:45:36.642Z,23.83
2023-02-15T15:48:21.845Z,23.83
2023-02-15T15:50:49.661Z,23.47
2023-02-15T15:53:26.237Z,23.17
2023-02-15T15:55:56.503Z,23.17
2023-02-15T15:58:23.176Z,22.97
2023-02-15T16:00:54.293Z,27.50
2023-02-15T16:03:24.982Z,24.90
2023-02-15T16:05:55.297Z,24.23
2023-02-15T16:08:33.053Z,22.70
2023-02-15T16:10:59.804Z,24.23
2023-02-15T16:13:26.349Z,26.07
2023-02-15T16:15:53.961Z,26.47
2023-02-15T16:18:25.256Z,24.33
2023-02-15T16:20:56.751Z,23.80
2023-02-15T16:23:39.755Z,24.67
2023-02-15T16:26:25.304Z,26.00
2023-02-15T16:28:55.667Z,25.17
2023-02-15T16:31:25.614Z,25.13
2023-02-15T16:33:56.061Z,24.83
2023-02-15T16:36:23.756Z,24.07
2023-02-15T16:38:50.147Z,26.83
2023-02-15T16:41:18.028Z,26.00
2023-02-15T16:43:46.514Z,25.53
2023-02-15T16:46:16.459Z,26.47
2023-02-15T16:48:46.332Z,25.43
2023-02-15T16:51:19.886Z,26.47
2023-02-15T16:53:47.567Z,26.13
2023-02-15T16:56:14.040Z,25.23
2023-02-15T16:58:45.007Z,26.53
2023-02-15T17:01:13.147Z,26.43
2023-02-15T17:03:40.713Z,27.60
2023-02-15T17:06:19.910Z,24.93
2023-02-15T17:08:49.629Z,24.90
2023-02-15T17:11:17.592Z,24.73
2023-02-15T17:14:03.560Z,26.30
2023-02-15T17:16:32.907Z,26.93
2023-02-15T17:19:00.242Z,25.87
2023-02-15T17:21:30.338Z,26.07
2023-02-15T17:24:01.517Z,27.27
2023-02-15T17:26:29.786Z,26.50
2023-02-15T17:28:57.803Z,27.43
2023-02-15T17:31:25.834Z,26.40
2023-02-15T17:33:55.326Z,25.83
2023-02-15T17:36:25.532Z,24.33
2023-02-15T17:38:58.935Z,25.37
2023-02-15T17:41:25.889Z,25.83
2023-02-15T17:43:52.401Z,25.43
2023-02-15T17:46:24.613Z,28.57
2023-02-15T17:48:52.083Z,25.57
2023-02-15T17:51:19.329Z,25.93
2023-02-15T17:54:06.233Z,25.53
2023-02-15T17:56:33.236Z,25.07
2023-02-15T17:58:59.660Z,25.97
2023-02-15T18:01:44.540Z,26.20
2023-02-15T18:04:31.043Z,26.77
2023-02-15T18:07:15.874Z,25.50
2023-02-15T18:10:00.699Z,24.67
2023-02-15T18:12:28.776Z,26.60
2023-02-15T18:14:56.308Z,24.90
2023-02-15T18:17:27.262Z,25.90
2023-02-15T18:19:54.240Z,25.77
2023-02-15T18:22:21.032Z,24.93
2023-02-15T18:24:48.202Z,23.60
2023-02-15T18:27:15.257Z,25.37
2023-02-15T18:29:42.196Z,24.63
2023-02-15T18:32:10.838Z,25.03
2023-02-15T18:34:38.598Z,23.30
2023-02-15T18:37:06.510Z,23.50
2023-02-15T18:39:40.697Z,23.30
2023-02-15T18:42:13.948Z,23.07
2023-02-15T18:44:40.785Z,23.57
2023-02-15T18:47:08.095Z,23.87
2023-02-15T18:49:34.386Z,23.93
2023-02-15T18:52:01.732Z,23.87
2023-02-15T18:54:28.151Z,23.77
2023-02-15T18:56:58.477Z,23.53
2023-02-15T18:59:26.043Z,23.57
2023-02-15T19:01:52.935Z,23.50
2023-02-15T19:04:19.351Z,23.80
2023-02-15T19:06:49.226Z,22.43
2023-02-15T19:09:17.223Z,23.10
2023-02-15T19:11:48.635Z,24.33
2023-02-15T19:14:35.326Z,23.27
2023-02-15T19:17:01.702Z,23.03
2023-02-15T19:19:28.176Z,22.17
2023-02-15T19:21:55.282Z,22.57
2023-02-15T19:24:25.018Z,22.03
2023-02-15T19:26:51.935Z,22.77
2023-02-15T19:29:29.542Z,21.90
2023-02-15T19:31:56.229Z,23.53
2023-02-15T19:34:22.732Z,22.53
2023-02-15T19:36:50.299Z,23.47
2023-02-15T19:39:30.318Z,21.77
2023-02-15T19:41:56.757Z,22.87
2023-02-15T19:44:23.075Z,21.50
2023-02-15T19:46:49.564Z,22.83
2023-02-15T19:49:15.997Z,21.33
2023-02-15T19:51:42.710Z,20.70
2023-02-15T19:54:41.180Z,22.17
2023-02-15T19:57:10.668Z,21.77
2023-02-15T19:59:37.050Z,22.00
2023-02-15T20:02:05.625Z,20.17
2023-02-15T20:04:31.980Z,22.47
2023-02-15T20:07:00.591Z,22.27
2023-02-15T20:09:30.732Z,21.97
2023-02-15T20:11:57.036Z,21.87
2023-02-15T20:14:23.873Z,21.63
2023-02-15T20:16:50.273Z,22.97
2023-02-15T20:19:16.830Z,21.43
2023-02-15T20:21:44.599Z,22.93
2023-02-15T20:24:18.877Z,21.43
2023-02-15T20:26:45.312Z,21.40
2023-02-15T20:29:18.446Z,21.53
2023-02-15T20:31:45.217Z,20.23
2023-02-15T20:34:11.833Z,20.57
2023-02-15T20:36:39.048Z,23.20
2023-02-15T20:39:12.177Z,24.23
2023-02-15T20:41:47.629Z,22.43
2023-02-15T20:44:27.650Z,23.30
2023-02-15T20:46:55.051Z,21.43
2023-02-15T20:49:23.966Z,22.47
2023-02-15T20:51:50.830Z,23.30
2023-02-15T20:54:18.633Z,22.20
2023-02-15T20:56:45.773Z,21.57
2023-02-15T20:59:29.030Z,22.20
2023-02-15T21:01:57.967Z,23.00
2023-02-15T21:04:28.444Z,22.23
2023-02-15T21:06:55.201Z,24.57
2023-02-15T21:09:21.543Z,22.67
2023-02-15T21:11:48.645Z,23.27
2023-02-15T21:14:19.179Z,24.00
2023-02-15T21:16:46.267Z,22.53
2023-02-15T21:19:14.131Z,22.80
2023-02-15T21:21:40.554Z,22.90
2023-02-15T21:24:07.259Z,22.53
2023-02-15T21:26:34.005Z,22.10
2023-02-15T21:29:00.429Z,22.67
2023-02-15T21:31:28.633Z,24.70
2023-02-15T21:33:55.052Z,21.37
2023-02-15T21:36:23.928Z,22.67
2023-02-15T21:38:50.607Z,23.13
2023-02-15T21:41:36.379Z,22.13
2023-02-15T21:44:21.273Z,23.60
2023-02-15T21:47:06.102Z,22.63
2023-02-15T21:49:32.416Z,22.17
2023-02-15T21:52:14.305Z,22.90
2023-02-15T21:54:41.171Z,24.97
2023-02-15T21:57:12.672Z,22.17
2023-02-15T21:59:38.993Z,23.43
2023-02-15T22:02:23.108Z,23.27
2023-02-15T22:04:49.419Z,22.63
2023-02-15T22:07:18.302Z,24.80
2023-02-15T22:09:44.656Z,23.23
2023-02-15T22:12:17.688Z,23.20
2023-02-15T22:14:53.368Z,23.00
2023-02-15T22:17:21.368Z,21.97
2023-02-15T22:19:48.771Z,22.37
2023-02-15T22:22:15.538Z,22.77
2023-02-15T22:24:42.401Z,23.73
2023-02-15T22:27:25.784Z,21.83
2023-02-15T22:29:52.234Z,22.10
2023-02-15T22:32:20.495Z,22.93
2023-02-15T22:34:47.114Z,21.13
2023-02-15T22:37:13.499Z,21.70
2023-02-15T22:39:39.828Z,22.40
2023-02-15T22:42:06.912Z,21.20
2023-02-15T22:44:33.697Z,22.70
2023-02-15T22:47:00.527Z,22.03
2023-02-15T22:49:27.485Z,22.47
2023-02-15T22:51:53.929Z,21.07
2023-02-15T22:54:20.353Z,21.77
2023-02-15T22:56:48.920Z,21.93
2023-02-15T22:59:28.744Z,21.43
2023-02-15T23:01:55.591Z,21.07
2023-02-15T23:04:26.420Z,22.57
2023-02-15T23:06:53.361Z,21.60
2023-02-15T23:09:19.751Z,21.13
2023-02-15T23:11:46.300Z,21.83
2023-02-15T23:14:24.951Z,21.90
2023-02-15T23:16:51.729Z,21.80
2023-02-15T23:19:18.071Z,22.30
2023-02-15T23:21:44.719Z,22.53
2023-02-15T23:24:17.188Z,21.27
2023-02-15T23:26:43.505Z,19.90
2023-02-15T23:29:13.368Z,22.40
2023-02-15T23:31:42.209Z,21.07
2023-02-15T23:34:16.485Z,21.40
2023-02-15T23:36:44.331Z,22.77
2023-02-15T23:39:35.574Z,20.80
2023-02-15T23:42:03.294Z,22.20
2023-02-15T23:44:30.134Z,21.87
2023-02-15T23:46:56.608Z,22.97
2023-02-15T23:49:23.456Z,21.27
2023-02-15T23:51:51.157Z,21.43
2023-02-15T23:54:18.339Z,21.17
2023-02-15T23:56:45.946Z,21.63
2023-02-15T23:59:16.608Z,22.03
